sensor_id;sensor_type;location;lat;lon;timestamp;temperature;humidity
12053;DHT22;6087;48.982;12.064;2023-12-29T00:01:52;5.90;81.10
12053;DHT22;6087;48.982;12.064;2023-12-29T00:04:20;5.90;80.40
12053;DHT22;6087;48.982;12.064;2023-12-29T00:06:47;5.80;80.00
12053;DHT22;6087;48.982;12.064;2023-12-29T00:09:14;5.80;79.50
12053;DHT22;6087;48.982;12.064;2023-12-29T00:11:41;5.80;79.00
12053;DHT22;6087;48.982;12.064;2023-12-29T00:14:10;5.80;78.80
12053;DHT22;6087;48.982;12.064;2023-12-29T00:16:36;5.70;79.20
12053;DHT22;6087;48.982;12.064;2023-12-29T00:19:04;5.70;80.60
12053;DHT22;6087;48.982;12.064;2023-12-29T00:21:30;5.60;83.10
12053;DHT22;6087;48.982;12.064;2023-12-29T00:23:57;5.70;83.50
12053;DHT22;6087;48.982;12.064;2023-12-29T00:26:24;5.60;84.50
12053;DHT22;6087;48.982;12.064;2023-12-29T00:28:51;5.60;84.50
12053;DHT22;6087;48.982;12.064;2023-12-29T00:31:23;5.60;84.90
12053;DHT22;6087;48.982;12.064;2023-12-29T00:33:51;5.60;86.60
12053;DHT22;6087;48.982;12.064;2023-12-29T00:36:19;5.60;87.60
12053;DHT22;6087;48.982;12.064;2023-12-29T00:38:49;5.60;88.60
12053;DHT22;6087;48.982;12.064;2023-12-29T00:41:16;5.60;90.50
12053;DHT22;6087;48.982;12.064;2023-12-29T00:43:43;5.70;90.70
12053;DHT22;6087;48.982;12.064;2023-12-29T00:46:16;5.70;91.10
12053;DHT22;6087;48.982;12.064;2023-12-29T00:48:44;5.70;91.40
12053;DHT22;6087;48.982;12.064;2023-12-29T00:51:11;5.70;91.30
12053;DHT22;6087;48.982;12.064;2023-12-29T00:53:38;5.70;90.30
12053;DHT22;6087;48.982;12.064;2023-12-29T00:56:09;5.70;89.80
12053;DHT22;6087;48.982;12.064;2023-12-29T00:58:37;5.70;88.80
12053;DHT22;6087;48.982;12.064;2023-12-29T01:01:06;5.70;88.80
12053;DHT22;6087;48.982;12.064;2023-12-29T01:03:33;5.70;89.60
12053;DHT22;6087;48.982;12.064;2023-12-29T01:06:02;5.80;89.00
12053;DHT22;6087;48.982;12.064;2023-12-29T01:08:29;5.80;88.00
12053;DHT22;6087;48.982;12.064;2023-12-29T01:10:56;5.70;87.40
12053;DHT22;6087;48.982;12.064;2023-12-29T01:13:23;5.80;86.80
12053;DHT22;6087;48.982;12.064;2023-12-29T01:15:50;5.70;87.40
12053;DHT22;6087;48.982;12.064;2023-12-29T01:18:17;5.70;87.30
12053;DHT22;6087;48.982;12.064;2023-12-29T01:20:44;5.70;85.40
12053;DHT22;6087;48.982;12.064;2023-12-29T01:23:12;5.70;85.10
12053;DHT22;6087;48.982;12.064;2023-12-29T01:25:39;5.70;85.30
12053;DHT22;6087;48.982;12.064;2023-12-29T01:28:06;5.70;86.20
12053;DHT22;6087;48.982;12.064;2023-12-29T01:30:33;5.70;88.80
12053;DHT22;6087;48.982;12.064;2023-12-29T01:33:00;5.70;89.80
12053;DHT22;6087;48.982;12.064;2023-12-29T01:35:27;5.70;90.20
12053;DHT22;6087;48.982;12.064;2023-12-29T01:37:54;5.70;90.60
12053;DHT22;6087;48.982;12.064;2023-12-29T01:40:23;5.70;90.90
12053;DHT22;6087;48.982;12.064;2023-12-29T01:42:50;5.70;99.90
12053;DHT22;6087;48.982;12.064;2023-12-29T01:45:21;5.80;99.90
12053;DHT22;6087;48.982;12.064;2023-12-29T01:47:49;5.80;1.00
12053;DHT22;6087;48.982;12.064;2023-12-29T01:50:21;5.90;1.00
12053;DHT22;6087;48.982;12.064;2023-12-29T01:52:50;5.90;33.50
12053;DHT22;6087;48.982;12.064;2023-12-29T01:55:20;6.00;1.00
12053;DHT22;6087;48.982;12.064;2023-12-29T01:57:50;6.00;1.00
12053;DHT22;6087;48.982;12.064;2023-12-29T02:00:20;6.10;99.90
12053;DHT22;6087;48.982;12.064;2023-12-29T02:02:50;6.10;99.90
12053;DHT22;6087;48.982;12.064;2023-12-29T02:05:17;6.10;1.00
12053;DHT22;6087;48.982;12.064;2023-12-29T02:07:51;6.10;90.60
12053;DHT22;6087;48.982;12.064;2023-12-29T02:10:18;6.10;90.00
12053;DHT22;6087;48.982;12.064;2023-12-29T02:12:50;6.10;90.20
12053;DHT22;6087;48.982;12.064;2023-12-29T02:15:19;6.10;90.00
12053;DHT22;6087;48.982;12.064;2023-12-29T02:17:50;6.10;91.00
12053;DHT22;6087;48.982;12.064;2023-12-29T02:20:19;6.00;92.40
12053;DHT22;6087;48.982;12.064;2023-12-29T02:22:48;6.10;93.90
12053;DHT22;6087;48.982;12.064;2023-12-29T02:25:17;6.10;94.50
12053;DHT22;6087;48.982;12.064;2023-12-29T02:27:49;6.10;94.10
12053;DHT22;6087;48.982;12.064;2023-12-29T02:30:23;6.10;93.70
12053;DHT22;6087;48.982;12.064;2023-12-29T02:32:55;6.20;93.60
12053;DHT22;6087;48.982;12.064;2023-12-29T02:35:26;6.20;93.60
12053;DHT22;6087;48.982;12.064;2023-12-29T02:37:54;6.20;93.00
12053;DHT22;6087;48.982;12.064;2023-12-29T02:40:23;6.20;1.00
12053;DHT22;6087;48.982;12.064;2023-12-29T02:42:50;6.20;1.00
12053;DHT22;6087;48.982;12.064;2023-12-29T02:45:23;6.20;99.90
12053;DHT22;6087;48.982;12.064;2023-12-29T02:47:50;6.20;99.90
12053;DHT22;6087;48.982;12.064;2023-12-29T02:50:18;6.20;1.00
12053;DHT22;6087;48.982;12.064;2023-12-29T02:52:44;6.20;1.00
12053;DHT22;6087;48.982;12.064;2023-12-29T02:55:18;6.10;3.50
12053;DHT22;6087;48.982;12.064;2023-12-29T02:57:48;6.10;1.00
12053;DHT22;6087;48.982;12.064;2023-12-29T03:00:15;6.20;1.00
12053;DHT22;6087;48.982;12.064;2023-12-29T03:02:42;6.20;1.00
12053;DHT22;6087;48.982;12.064;2023-12-29T03:05:16;6.20;1.00
12053;DHT22;6087;48.982;12.064;2023-12-29T03:07:43;6.20;1.00
12053;DHT22;6087;48.982;12.064;2023-12-29T03:10:10;6.20;1.00
12053;DHT22;6087;48.982;12.064;2023-12-29T03:12:37;6.30;1.00
12053;DHT22;6087;48.982;12.064;2023-12-29T03:15:06;6.30;1.00
12053;DHT22;6087;48.982;12.064;2023-12-29T03:17:33;6.30;99.90
12053;DHT22;6087;48.982;12.064;2023-12-29T03:20:00;6.30;99.90
12053;DHT22;6087;48.982;12.064;2023-12-29T03:22:30;6.30;99.90
12053;DHT22;6087;48.982;12.064;2023-12-29T03:24:57;6.20;99.90
12053;DHT22;6087;48.982;12.064;2023-12-29T03:27:24;6.20;99.90
12053;DHT22;6087;48.982;12.064;2023-12-29T03:29:51;6.30;99.90
12053;DHT22;6087;48.982;12.064;2023-12-29T03:32:20;6.30;99.90
12053;DHT22;6087;48.982;12.064;2023-12-29T03:34:47;6.30;99.90
12053;DHT22;6087;48.982;12.064;2023-12-29T03:37:19;6.30;99.90
12053;DHT22;6087;48.982;12.064;2023-12-29T03:39:46;6.30;55.10
12053;DHT22;6087;48.982;12.064;2023-12-29T03:42:13;6.30;22.90
12053;DHT22;6087;48.982;12.064;2023-12-29T03:44:40;6.30;1.00
12053;DHT22;6087;48.982;12.064;2023-12-29T03:47:08;6.30;1.00
12053;DHT22;6087;48.982;12.064;2023-12-29T03:49:37;6.30;1.00
12053;DHT22;6087;48.982;12.064;2023-12-29T03:52:05;6.30;1.00
12053;DHT22;6087;48.982;12.064;2023-12-29T03:54:32;6.40;1.00
12053;DHT22;6087;48.982;12.064;2023-12-29T03:56:59;6.40;1.00
12053;DHT22;6087;48.982;12.064;2023-12-29T03:59:26;6.40;1.00
12053;DHT22;6087;48.982;12.064;2023-12-29T04:01:53;6.40;1.00
12053;DHT22;6087;48.982;12.064;2023-12-29T04:04:20;6.40;1.00
12053;DHT22;6087;48.982;12.064;2023-12-29T04:06:48;6.40;1.00
12053;DHT22;6087;48.982;12.064;2023-12-29T04:09:15;6.40;1.00
12053;DHT22;6087;48.982;12.064;2023-12-29T04:11:42;6.50;1.00
12053;DHT22;6087;48.982;12.064;2023-12-29T04:14:12;6.50;1.00
12053;DHT22;6087;48.982;12.064;2023-12-29T04:16:40;6.50;99.90
12053;DHT22;6087;48.982;12.064;2023-12-29T04:19:07;6.50;99.90
12053;DHT22;6087;48.982;12.064;2023-12-29T04:21:34;6.50;99.90
12053;DHT22;6087;48.982;12.064;2023-12-29T04:24:02;6.50;99.90
12053;DHT22;6087;48.982;12.064;2023-12-29T04:26:29;6.40;99.90
12053;DHT22;6087;48.982;12.064;2023-12-29T04:28:56;6.40;99.90
12053;DHT22;6087;48.982;12.064;2023-12-29T04:31:23;6.40;99.90
12053;DHT22;6087;48.982;12.064;2023-12-29T04:33:50;6.30;99.90
12053;DHT22;6087;48.982;12.064;2023-12-29T04:36:17;6.30;99.90
12053;DHT22;6087;48.982;12.064;2023-12-29T04:38:44;6.30;99.90
12053;DHT22;6087;48.982;12.064;2023-12-29T04:41:13;6.30;99.90
12053;DHT22;6087;48.982;12.064;2023-12-29T04:43:40;6.20;99.90
12053;DHT22;6087;48.982;12.064;2023-12-29T04:46:07;6.20;99.90
12053;DHT22;6087;48.982;12.064;2023-12-29T04:48:37;6.20;99.90
12053;DHT22;6087;48.982;12.064;2023-12-29T04:51:04;6.20;99.90
12053;DHT22;6087;48.982;12.064;2023-12-29T04:53:31;6.20;99.90
12053;DHT22;6087;48.982;12.064;2023-12-29T04:55:58;6.20;99.90
12053;DHT22;6087;48.982;12.064;2023-12-29T04:58:26;6.20;99.90
12053;DHT22;6087;48.982;12.064;2023-12-29T05:00:53;6.20;99.90
12053;DHT22;6087;48.982;12.064;2023-12-29T05:03:20;6.20;99.90
12053;DHT22;6087;48.982;12.064;2023-12-29T05:05:47;6.20;99.90
12053;DHT22;6087;48.982;12.064;2023-12-29T05:08:14;6.10;99.90
12053;DHT22;6087;48.982;12.064;2023-12-29T05:10:41;6.10;99.90
12053;DHT22;6087;48.982;12.064;2023-12-29T05:13:08;6.10;99.90
12053;DHT22;6087;48.982;12.064;2023-12-29T05:15:39;6.10;99.90
12053;DHT22;6087;48.982;12.064;2023-12-29T05:18:06;6.10;99.90
12053;DHT22;6087;48.982;12.064;2023-12-29T05:20:36;6.00;99.90
12053;DHT22;6087;48.982;12.064;2023-12-29T05:23:03;6.00;99.90
12053;DHT22;6087;48.982;12.064;2023-12-29T05:25:33;6.00;99.90
12053;DHT22;6087;48.982;12.064;2023-12-29T05:28:00;6.00;99.90
12053;DHT22;6087;48.982;12.064;2023-12-29T05:30:35;6.10;99.90
12053;DHT22;6087;48.982;12.064;2023-12-29T05:33:03;6.00;99.90
12053;DHT22;6087;48.982;12.064;2023-12-29T05:35:30;6.00;99.90
12053;DHT22;6087;48.982;12.064;2023-12-29T05:38:00;6.00;99.90
12053;DHT22;6087;48.982;12.064;2023-12-29T05:40:30;6.00;99.90
12053;DHT22;6087;48.982;12.064;2023-12-29T05:43:00;6.00;99.90
12053;DHT22;6087;48.982;12.064;2023-12-29T05:45:27;6.10;99.90
12053;DHT22;6087;48.982;12.064;2023-12-29T05:47:54;6.10;99.90
12053;DHT22;6087;48.982;12.064;2023-12-29T05:50:22;6.10;99.90
12053;DHT22;6087;48.982;12.064;2023-12-29T05:52:49;6.00;99.90
12053;DHT22;6087;48.982;12.064;2023-12-29T05:55:17;6.00;99.90
12053;DHT22;6087;48.982;12.064;2023-12-29T05:57:44;6.00;99.90
12053;DHT22;6087;48.982;12.064;2023-12-29T06:00:12;6.00;99.90
12053;DHT22;6087;48.982;12.064;2023-12-29T06:02:40;6.00;99.90
12053;DHT22;6087;48.982;12.064;2023-12-29T06:05:10;6.00;99.90
12053;DHT22;6087;48.982;12.064;2023-12-29T06:07:38;5.90;99.90
12053;DHT22;6087;48.982;12.064;2023-12-29T06:10:06;5.90;99.90
12053;DHT22;6087;48.982;12.064;2023-12-29T06:12:34;5.90;99.90
12053;DHT22;6087;48.982;12.064;2023-12-29T06:15:02;5.90;99.90
12053;DHT22;6087;48.982;12.064;2023-12-29T06:17:29;5.90;99.90
12053;DHT22;6087;48.982;12.064;2023-12-29T06:19:58;5.90;99.90
12053;DHT22;6087;48.982;12.064;2023-12-29T06:22:27;5.90;99.90
12053;DHT22;6087;48.982;12.064;2023-12-29T06:24:55;5.90;99.90
12053;DHT22;6087;48.982;12.064;2023-12-29T06:27:23;6.00;99.90
12053;DHT22;6087;48.982;12.064;2023-12-29T06:29:49;5.90;99.90
12053;DHT22;6087;48.982;12.064;2023-12-29T06:32:16;5.90;99.90
12053;DHT22;6087;48.982;12.064;2023-12-29T06:34:44;5.90;99.90
12053;DHT22;6087;48.982;12.064;2023-12-29T06:37:11;5.90;99.90
12053;DHT22;6087;48.982;12.064;2023-12-29T06:39:38;5.90;99.90
12053;DHT22;6087;48.982;12.064;2023-12-29T06:42:07;5.90;99.90
12053;DHT22;6087;48.982;12.064;2023-12-29T06:44:34;5.90;99.90
12053;DHT22;6087;48.982;12.064;2023-12-29T06:47:01;5.90;99.90
12053;DHT22;6087;48.982;12.064;2023-12-29T06:49:30;6.00;99.90
12053;DHT22;6087;48.982;12.064;2023-12-29T06:51:57;6.00;99.90
12053;DHT22;6087;48.982;12.064;2023-12-29T06:54:24;6.00;99.90
12053;DHT22;6087;48.982;12.064;2023-12-29T06:56:54;6.00;99.90
12053;DHT22;6087;48.982;12.064;2023-12-29T06:59:22;6.10;99.90
12053;DHT22;6087;48.982;12.064;2023-12-29T07:01:49;6.10;99.90
12053;DHT22;6087;48.982;12.064;2023-12-29T07:04:16;6.10;99.90
12053;DHT22;6087;48.982;12.064;2023-12-29T07:06:43;6.10;99.90
12053;DHT22;6087;48.982;12.064;2023-12-29T07:09:10;6.20;99.90
12053;DHT22;6087;48.982;12.064;2023-12-29T07:11:37;6.20;99.90
12053;DHT22;6087;48.982;12.064;2023-12-29T07:14:04;6.20;99.90
12053;DHT22;6087;48.982;12.064;2023-12-29T07:16:33;6.30;99.90
12053;DHT22;6087;48.982;12.064;2023-12-29T07:19:00;6.30;99.90
12053;DHT22;6087;48.982;12.064;2023-12-29T07:21:27;6.30;99.90
12053;DHT22;6087;48.982;12.064;2023-12-29T07:23:54;6.30;99.90
12053;DHT22;6087;48.982;12.064;2023-12-29T07:26:21;6.30;99.90
12053;DHT22;6087;48.982;12.064;2023-12-29T07:28:48;6.30;99.90
12053;DHT22;6087;48.982;12.064;2023-12-29T07:31:19;6.30;99.90
12053;DHT22;6087;48.982;12.064;2023-12-29T07:33:48;6.30;99.90
12053;DHT22;6087;48.982;12.064;2023-12-29T07:36:15;6.30;99.90
12053;DHT22;6087;48.982;12.064;2023-12-29T07:38:42;6.30;99.90
12053;DHT22;6087;48.982;12.064;2023-12-29T07:41:09;6.30;99.90
12053;DHT22;6087;48.982;12.064;2023-12-29T07:43:36;6.30;99.90
12053;DHT22;6087;48.982;12.064;2023-12-29T07:46:03;6.30;99.90
12053;DHT22;6087;48.982;12.064;2023-12-29T07:48:30;6.30;99.90
12053;DHT22;6087;48.982;12.064;2023-12-29T07:51:04;6.30;99.90
12053;DHT22;6087;48.982;12.064;2023-12-29T07:53:31;6.30;99.90
12053;DHT22;6087;48.982;12.064;2023-12-29T07:55:58;6.40;99.90
12053;DHT22;6087;48.982;12.064;2023-12-29T07:58:25;6.40;99.90
12053;DHT22;6087;48.982;12.064;2023-12-29T08:00:52;6.40;99.90
12053;DHT22;6087;48.982;12.064;2023-12-29T08:03:19;6.40;99.90
12053;DHT22;6087;48.982;12.064;2023-12-29T08:05:46;6.40;99.90
12053;DHT22;6087;48.982;12.064;2023-12-29T08:08:15;6.50;96.70
12053;DHT22;6087;48.982;12.064;2023-12-29T08:10:42;6.40;98.10
12053;DHT22;6087;48.982;12.064;2023-12-29T08:13:09;6.40;92.30
12053;DHT22;6087;48.982;12.064;2023-12-29T08:15:36;6.40;83.40
12053;DHT22;6087;48.982;12.064;2023-12-29T08:18:03;6.40;75.80
12053;DHT22;6087;48.982;12.064;2023-12-29T08:20:30;6.40;71.10
12053;DHT22;6087;48.982;12.064;2023-12-29T08:22:57;6.50;67.40
12053;DHT22;6087;48.982;12.064;2023-12-29T08:25:29;6.50;65.40
12053;DHT22;6087;48.982;12.064;2023-12-29T08:27:56;6.40;61.30
12053;DHT22;6087;48.982;12.064;2023-12-29T08:30:23;6.50;58.10
12053;DHT22;6087;48.982;12.064;2023-12-29T08:32:50;6.50;62.40
12053;DHT22;6087;48.982;12.064;2023-12-29T08:35:17;6.50;58.70
12053;DHT22;6087;48.982;12.064;2023-12-29T08:37:44;6.50;56.70
12053;DHT22;6087;48.982;12.064;2023-12-29T08:40:11;6.50;53.70
12053;DHT22;6087;48.982;12.064;2023-12-29T08:42:40;6.60;51.20
12053;DHT22;6087;48.982;12.064;2023-12-29T08:45:07;6.60;57.00
12053;DHT22;6087;48.982;12.064;2023-12-29T08:47:34;6.60;57.70
12053;DHT22;6087;48.982;12.064;2023-12-29T08:50:01;6.60;61.10
12053;DHT22;6087;48.982;12.064;2023-12-29T08:52:28;6.70;62.50
12053;DHT22;6087;48.982;12.064;2023-12-29T08:54:55;6.70;60.60
12053;DHT22;6087;48.982;12.064;2023-12-29T08:57:22;6.70;61.00
12053;DHT22;6087;48.982;12.064;2023-12-29T08:59:51;6.80;57.40
12053;DHT22;6087;48.982;12.064;2023-12-29T09:02:18;6.80;48.50
12053;DHT22;6087;48.982;12.064;2023-12-29T09:04:45;6.90;60.60
12053;DHT22;6087;48.982;12.064;2023-12-29T09:07:17;6.90;42.70
12053;DHT22;6087;48.982;12.064;2023-12-29T09:09:44;7.00;23.70
12053;DHT22;6087;48.982;12.064;2023-12-29T09:12:20;7.00;19.80
12053;DHT22;6087;48.982;12.064;2023-12-29T09:14:47;7.10;14.20
12053;DHT22;6087;48.982;12.064;2023-12-29T09:17:23;7.10;8.40
12053;DHT22;6087;48.982;12.064;2023-12-29T09:19:50;7.20;7.10
12053;DHT22;6087;48.982;12.064;2023-12-29T09:22:17;7.20;1.90
12053;DHT22;6087;48.982;12.064;2023-12-29T09:24:44;7.30;1.00
12053;DHT22;6087;48.982;12.064;2023-12-29T09:27:11;7.30;1.00
12053;DHT22;6087;48.982;12.064;2023-12-29T09:29:38;7.40;1.00
12053;DHT22;6087;48.982;12.064;2023-12-29T09:32:06;7.40;1.00
12053;DHT22;6087;48.982;12.064;2023-12-29T09:34:34;7.50;1.00
12053;DHT22;6087;48.982;12.064;2023-12-29T09:37:01;7.50;1.00
12053;DHT22;6087;48.982;12.064;2023-12-29T09:39:28;7.60;1.00
12053;DHT22;6087;48.982;12.064;2023-12-29T09:41:59;7.60;1.00
12053;DHT22;6087;48.982;12.064;2023-12-29T09:44:28;7.70;1.00
12053;DHT22;6087;48.982;12.064;2023-12-29T09:46:55;7.70;1.00
12053;DHT22;6087;48.982;12.064;2023-12-29T09:49:24;7.80;1.00
12053;DHT22;6087;48.982;12.064;2023-12-29T09:51:53;7.90;1.00
12053;DHT22;6087;48.982;12.064;2023-12-29T09:54:21;7.90;1.00
12053;DHT22;6087;48.982;12.064;2023-12-29T09:56:49;7.90;1.00
12053;DHT22;6087;48.982;12.064;2023-12-29T09:59:16;7.90;1.00
12053;DHT22;6087;48.982;12.064;2023-12-29T10:01:47;8.00;1.00
12053;DHT22;6087;48.982;12.064;2023-12-29T10:04:15;8.00;1.00
12053;DHT22;6087;48.982;12.064;2023-12-29T10:06:44;8.10;1.00
12053;DHT22;6087;48.982;12.064;2023-12-29T10:09:14;8.10;1.00
12053;DHT22;6087;48.982;12.064;2023-12-29T10:11:45;8.10;1.00
12053;DHT22;6087;48.982;12.064;2023-12-29T10:14:22;8.10;1.00
12053;DHT22;6087;48.982;12.064;2023-12-29T10:16:53;8.10;1.00
12053;DHT22;6087;48.982;12.064;2023-12-29T10:19:30;8.10;1.00
12053;DHT22;6087;48.982;12.064;2023-12-29T10:22:03;8.10;1.00
12053;DHT22;6087;48.982;12.064;2023-12-29T10:24:34;8.10;1.00
12053;DHT22;6087;48.982;12.064;2023-12-29T10:27:05;8.10;1.00
12053;DHT22;6087;48.982;12.064;2023-12-29T10:29:32;8.10;1.00
12053;DHT22;6087;48.982;12.064;2023-12-29T10:32:00;8.10;1.00
12053;DHT22;6087;48.982;12.064;2023-12-29T10:34:27;8.10;1.00
12053;DHT22;6087;48.982;12.064;2023-12-29T10:36:55;8.10;2.90
12053;DHT22;6087;48.982;12.064;2023-12-29T10:39:22;8.20;5.40
12053;DHT22;6087;48.982;12.064;2023-12-29T10:42:03;8.20;6.80
12053;DHT22;6087;48.982;12.064;2023-12-29T10:44:31;8.20;20.10
12053;DHT22;6087;48.982;12.064;2023-12-29T10:46:58;8.30;21.40
12053;DHT22;6087;48.982;12.064;2023-12-29T10:49:25;8.30;20.90
12053;DHT22;6087;48.982;12.064;2023-12-29T10:51:51;8.30;22.60
12053;DHT22;6087;48.982;12.064;2023-12-29T10:54:20;8.40;19.80
12053;DHT22;6087;48.982;12.064;2023-12-29T10:57:09;8.40;21.40
12053;DHT22;6087;48.982;12.064;2023-12-29T10:59:37;8.40;28.50
12053;DHT22;6087;48.982;12.064;2023-12-29T11:02:04;8.40;30.10
12053;DHT22;6087;48.982;12.064;2023-12-29T11:04:33;8.40;37.30
12053;DHT22;6087;48.982;12.064;2023-12-29T11:07:00;8.40;36.20
12053;DHT22;6087;48.982;12.064;2023-12-29T11:09:28;8.40;31.60
12053;DHT22;6087;48.982;12.064;2023-12-29T11:11:56;8.40;39.90
12053;DHT22;6087;48.982;12.064;2023-12-29T11:14:25;8.40;47.10
12053;DHT22;6087;48.982;12.064;2023-12-29T11:16:57;8.40;52.80
12053;DHT22;6087;48.982;12.064;2023-12-29T11:19:25;8.40;61.00
12053;DHT22;6087;48.982;12.064;2023-12-29T11:21:55;8.50;70.60
12053;DHT22;6087;48.982;12.064;2023-12-29T11:24:23;8.50;72.20
12053;DHT22;6087;48.982;12.064;2023-12-29T11:26:50;8.50;78.30
12053;DHT22;6087;48.982;12.064;2023-12-29T11:29:18;8.60;80.70
12053;DHT22;6087;48.982;12.064;2023-12-29T11:31:47;8.60;86.70
12053;DHT22;6087;48.982;12.064;2023-12-29T11:34:22;8.60;93.20
12053;DHT22;6087;48.982;12.064;2023-12-29T11:36:50;8.60;92.10
12053;DHT22;6087;48.982;12.064;2023-12-29T11:39:27;8.70;94.80
12053;DHT22;6087;48.982;12.064;2023-12-29T11:42:01;8.70;93.70
12053;DHT22;6087;48.982;12.064;2023-12-29T11:44:28;8.70;96.50
12053;DHT22;6087;48.982;12.064;2023-12-29T11:47:00;8.70;97.10
12053;DHT22;6087;48.982;12.064;2023-12-29T11:49:59;8.70;99.90
12053;DHT22;6087;48.982;12.064;2023-12-29T11:52:33;8.80;99.90
12053;DHT22;6087;48.982;12.064;2023-12-29T11:55:07;8.80;99.90
12053;DHT22;6087;48.982;12.064;2023-12-29T11:57:35;8.80;99.90
12053;DHT22;6087;48.982;12.064;2023-12-29T12:00:04;8.80;99.90
12053;DHT22;6087;48.982;12.064;2023-12-29T12:02:33;8.90;99.90
12053;DHT22;6087;48.982;12.064;2023-12-29T12:05:01;9.00;96.10
12053;DHT22;6087;48.982;12.064;2023-12-29T12:07:58;9.10;91.40
12053;DHT22;6087;48.982;12.064;2023-12-29T12:10:33;9.10;91.10
12053;DHT22;6087;48.982;12.064;2023-12-29T12:13:04;9.20;90.90
12053;DHT22;6087;48.982;12.064;2023-12-29T12:15:32;9.30;73.30
12053;DHT22;6087;48.982;12.064;2023-12-29T12:18:01;9.40;68.30
12053;DHT22;6087;48.982;12.064;2023-12-29T12:20:32;9.50;67.30
12053;DHT22;6087;48.982;12.064;2023-12-29T12:23:04;9.50;42.70
12053;DHT22;6087;48.982;12.064;2023-12-29T12:25:35;9.40;43.60
12053;DHT22;6087;48.982;12.064;2023-12-29T12:28:05;9.40;37.20
12053;DHT22;6087;48.982;12.064;2023-12-29T12:30:33;9.40;42.10
12053;DHT22;6087;48.982;12.064;2023-12-29T12:33:03;9.40;31.50
12053;DHT22;6087;48.982;12.064;2023-12-29T12:35:30;9.40;40.00
12053;DHT22;6087;48.982;12.064;2023-12-29T12:38:07;9.40;33.10
12053;DHT22;6087;48.982;12.064;2023-12-29T12:40:35;9.40;31.30
12053;DHT22;6087;48.982;12.064;2023-12-29T12:43:02;9.40;33.40
12053;DHT22;6087;48.982;12.064;2023-12-29T12:45:34;9.50;30.80
12053;DHT22;6087;48.982;12.064;2023-12-29T12:48:11;9.50;27.00
12053;DHT22;6087;48.982;12.064;2023-12-29T12:50:42;9.50;29.20
12053;DHT22;6087;48.982;12.064;2023-12-29T12:53:11;9.50;28.50
12053;DHT22;6087;48.982;12.064;2023-12-29T12:55:40;9.50;30.60
12053;DHT22;6087;48.982;12.064;2023-12-29T12:58:08;9.50;22.60
12053;DHT22;6087;48.982;12.064;2023-12-29T13:00:48;9.50;19.50
12053;DHT22;6087;48.982;12.064;2023-12-29T13:03:16;9.50;12.10
12053;DHT22;6087;48.982;12.064;2023-12-29T13:05:44;9.50;8.30
12053;DHT22;6087;48.982;12.064;2023-12-29T13:08:12;9.50;3.00
12053;DHT22;6087;48.982;12.064;2023-12-29T13:10:40;9.50;1.00
12053;DHT22;6087;48.982;12.064;2023-12-29T13:13:11;9.50;1.00
12053;DHT22;6087;48.982;12.064;2023-12-29T13:15:46;9.50;1.00
12053;DHT22;6087;48.982;12.064;2023-12-29T13:18:13;9.40;11.90
12053;DHT22;6087;48.982;12.064;2023-12-29T13:20:45;9.40;1.00
12053;DHT22;6087;48.982;12.064;2023-12-29T13:23:13;9.40;1.00
12053;DHT22;6087;48.982;12.064;2023-12-29T13:25:40;9.40;1.00
12053;DHT22;6087;48.982;12.064;2023-12-29T13:28:10;9.50;1.00
12053;DHT22;6087;48.982;12.064;2023-12-29T13:30:37;9.40;1.00
12053;DHT22;6087;48.982;12.064;2023-12-29T13:33:12;9.50;1.00
12053;DHT22;6087;48.982;12.064;2023-12-29T13:35:47;9.50;1.00
12053;DHT22;6087;48.982;12.064;2023-12-29T13:38:18;9.50;1.00
12053;DHT22;6087;48.982;12.064;2023-12-29T13:40:54;9.60;1.00
12053;DHT22;6087;48.982;12.064;2023-12-29T13:43:26;9.60;1.00
12053;DHT22;6087;48.982;12.064;2023-12-29T13:45:57;9.70;1.00
12053;DHT22;6087;48.982;12.064;2023-12-29T13:48:25;9.70;1.00
12053;DHT22;6087;48.982;12.064;2023-12-29T13:50:54;9.70;1.00
12053;DHT22;6087;48.982;12.064;2023-12-29T13:53:22;9.80;1.00
12053;DHT22;6087;48.982;12.064;2023-12-29T13:55:49;9.70;1.00
12053;DHT22;6087;48.982;12.064;2023-12-29T13:58:16;9.70;1.00
12053;DHT22;6087;48.982;12.064;2023-12-29T14:00:44;9.80;1.00
12053;DHT22;6087;48.982;12.064;2023-12-29T14:03:15;9.80;1.00
12053;DHT22;6087;48.982;12.064;2023-12-29T14:05:52;9.70;1.00
12053;DHT22;6087;48.982;12.064;2023-12-29T14:08:27;9.70;1.00
12053;DHT22;6087;48.982;12.064;2023-12-29T14:10:59;9.60;1.00
12053;DHT22;6087;48.982;12.064;2023-12-29T14:13:26;9.50;1.00
12053;DHT22;6087;48.982;12.064;2023-12-29T14:15:53;9.50;1.00
12053;DHT22;6087;48.982;12.064;2023-12-29T14:18:53;9.50;1.00
12053;DHT22;6087;48.982;12.064;2023-12-29T14:21:24;9.40;1.00
12053;DHT22;6087;48.982;12.064;2023-12-29T14:24:07;9.40;1.00
12053;DHT22;6087;48.982;12.064;2023-12-29T14:26:34;9.40;1.00
12053;DHT22;6087;48.982;12.064;2023-12-29T14:29:02;9.30;1.00
12053;DHT22;6087;48.982;12.064;2023-12-29T14:31:32;9.30;1.00
12053;DHT22;6087;48.982;12.064;2023-12-29T14:34:01;9.30;1.00
12053;DHT22;6087;48.982;12.064;2023-12-29T14:36:29;9.20;1.00
12053;DHT22;6087;48.982;12.064;2023-12-29T14:38:56;9.20;1.00
12053;DHT22;6087;48.982;12.064;2023-12-29T14:41:25;9.20;1.00
12053;DHT22;6087;48.982;12.064;2023-12-29T14:43:52;9.20;1.00
12053;DHT22;6087;48.982;12.064;2023-12-29T14:46:20;9.20;1.00
12053;DHT22;6087;48.982;12.064;2023-12-29T14:48:47;9.20;1.00
12053;DHT22;6087;48.982;12.064;2023-12-29T14:51:14;9.20;1.00
12053;DHT22;6087;48.982;12.064;2023-12-29T14:53:43;9.20;1.00
12053;DHT22;6087;48.982;12.064;2023-12-29T14:56:11;9.10;1.90
12053;DHT22;6087;48.982;12.064;2023-12-29T14:58:41;9.10;5.40
12053;DHT22;6087;48.982;12.064;2023-12-29T15:01:09;9.20;10.50
12053;DHT22;6087;48.982;12.064;2023-12-29T15:03:37;9.10;13.30
12053;DHT22;6087;48.982;12.064;2023-12-29T15:06:04;9.10;13.60
12053;DHT22;6087;48.982;12.064;2023-12-29T15:08:32;9.10;12.90
12053;DHT22;6087;48.982;12.064;2023-12-29T15:11:02;9.10;12.20
12053;DHT22;6087;48.982;12.064;2023-12-29T15:13:29;9.10;16.90
12053;DHT22;6087;48.982;12.064;2023-12-29T15:15:59;9.10;18.10
12053;DHT22;6087;48.982;12.064;2023-12-29T15:18:26;9.10;21.30
12053;DHT22;6087;48.982;12.064;2023-12-29T15:20:55;9.10;24.00
12053;DHT22;6087;48.982;12.064;2023-12-29T15:23:22;9.10;25.60
12053;DHT22;6087;48.982;12.064;2023-12-29T15:25:49;9.10;41.90
12053;DHT22;6087;48.982;12.064;2023-12-29T15:28:17;9.00;27.80
12053;DHT22;6087;48.982;12.064;2023-12-29T15:30:44;9.00;28.40
12053;DHT22;6087;48.982;12.064;2023-12-29T15:33:12;9.00;45.50
12053;DHT22;6087;48.982;12.064;2023-12-29T15:35:40;9.00;29.20
12053;DHT22;6087;48.982;12.064;2023-12-29T15:38:07;9.00;32.60
12053;DHT22;6087;48.982;12.064;2023-12-29T15:40:34;9.00;34.20
12053;DHT22;6087;48.982;12.064;2023-12-29T15:43:14;9.00;36.60
12053;DHT22;6087;48.982;12.064;2023-12-29T15:45:42;9.00;43.20
12053;DHT22;6087;48.982;12.064;2023-12-29T15:48:16;9.00;45.90
12053;DHT22;6087;48.982;12.064;2023-12-29T15:50:44;9.00;49.60
12053;DHT22;6087;48.982;12.064;2023-12-29T15:53:11;9.00;58.60
12053;DHT22;6087;48.982;12.064;2023-12-29T15:55:40;9.00;60.20
12053;DHT22;6087;48.982;12.064;2023-12-29T15:58:07;9.00;58.00
12053;DHT22;6087;48.982;12.064;2023-12-29T16:00:34;8.90;57.00